Time;durP1;ratioP1;P1;durP2;ratioP2;P2;SDS_P1;SDS_P2;PMS_P1;PMS_P2;Temp;Humidity;BMP_temperature;BMP_pressure;BME280_temperature;BME280_humidity;BME280_pressure;Samples;Min_cycle;Max_cycle;Signal;HPM_P1;HPM_P2
2021/06/26 00:00:12;;;;;;;14.25;4.50;;;;;;;17.34;93.89;94569.52;1621697;86;21104;-58
2021/06/26 00:02:40;;;;;;;9.48;4.05;;;;;;;17.34;94.01;94579.25;1632140;87;21035;-58
2021/06/26 00:05:08;;;;;;;6.42;3.42;;;;;;;17.37;94.13;94578.27;1629664;87;21461;-57
2021/06/26 00:07:35;;;;;;;9.68;4.75;;;;;;;17.39;93.85;94586.88;1626231;87;20982;-59
2021/06/26 00:10:04;;;;;;;10.82;4.03;;;;;;;17.40;93.84;94600.13;1625393;87;21580;-58
2021/06/26 00:12:31;;;;;;;5.55;3.75;;;;;;;17.41;93.91;94605.22;1630741;87;21144;-58
2021/06/26 00:14:58;;;;;;;15.75;4.17;;;;;;;17.45;94.10;94591.09;1642460;86;21083;-58
2021/06/26 00:17:25;;;;;;;10.05;4.72;;;;;;;17.45;93.79;94588.31;1633474;87;20994;-59
2021/06/26 00:19:52;;;;;;;10.78;3.30;;;;;;;17.45;93.70;94589.70;1635277;87;21085;-58
2021/06/26 00:22:18;;;;;;;9.55;3.95;;;;;;;17.45;93.47;94594.62;1632076;87;22012;-58
2021/06/26 00:24:47;;;;;;;9.40;4.58;;;;;;;17.47;93.63;94596.27;1637055;87;21227;-56
2021/06/26 00:27:13;;;;;;;10.15;4.00;;;;;;;17.53;93.86;94601.88;1632569;87;21030;-58
2021/06/26 00:29:41;;;;;;;6.72;3.87;;;;;;;17.56;93.47;94595.32;1636034;86;21073;-58
2021/06/26 00:32:08;;;;;;;7.92;3.20;;;;;;;17.53;93.16;94587.97;1631886;87;21104;-57
2021/06/26 00:34:34;;;;;;;5.87;3.22;;;;;;;17.49;93.18;94583.27;1622286;87;21156;-58
2021/06/26 00:37:01;;;;;;;11.38;4.08;;;;;;;17.52;93.49;94585.06;1628282;87;21134;-56
2021/06/26 00:39:28;;;;;;;10.32;4.33;;;;;;;17.59;93.69;94589.53;1639289;87;21333;-58
2021/06/26 00:41:55;;;;;;;9.65;4.03;;;;;;;17.67;93.13;94579.45;1638437;87;21034;-58
2021/06/26 00:44:28;;;;;;;10.90;4.25;;;;;;;17.69;92.92;94576.19;1630103;87;20953;-56
2021/06/26 00:46:55;;;;;;;11.75;3.77;;;;;;;17.71;92.85;94580.02;1624329;87;21788;-58
2021/06/26 00:49:22;;;;;;;9.73;4.03;;;;;;;17.70;92.55;94579.88;1632412;87;21042;-59
2021/06/26 00:51:50;;;;;;;8.33;4.33;;;;;;;17.64;92.38;94575.54;1622929;87;21477;-58
2021/06/26 00:54:16;;;;;;;10.20;4.58;;;;;;;17.63;92.54;94561.50;1608793;87;21047;-58
2021/06/26 00:56:45;;;;;;;13.93;4.03;;;;;;;17.63;92.44;94561.50;1622932;87;20977;-58
2021/06/26 00:59:13;;;;;;;12.80;3.95;;;;;;;17.61;92.89;94563.38;1625269;86;21078;-58
2021/06/26 01:01:40;;;;;;;7.80;3.60;;;;;;;17.61;92.96;94579.31;1623710;87;21026;-58
2021/06/26 01:04:07;;;;;;;10.35;3.85;;;;;;;17.57;93.53;94569.02;1631168;86;21046;-58
2021/06/26 01:06:34;;;;;;;10.28;4.42;;;;;;;17.58;93.60;94553.23;1634764;87;21030;-58
2021/06/26 01:09:01;;;;;;;9.35;3.50;;;;;;;17.58;93.66;94548.30;1637034;87;21054;-58
2021/06/26 01:11:29;;;;;;;5.42;3.33;;;;;;;17.56;93.44;94546.64;1630164;87;21092;-58
2021/06/26 01:13:58;;;;;;;9.68;3.80;;;;;;;17.52;93.71;94558.63;1632039;87;20986;-59
2021/06/26 01:16:25;;;;;;;9.10;3.47;;;;;;;17.53;93.77;94566.49;1633454;87;21077;-59
2021/06/26 01:18:53;;;;;;;8.23;3.40;;;;;;;17.53;93.80;94564.33;1635350;87;21098;-59
2021/06/26 01:21:20;;;;;;;9.20;4.33;;;;;;;17.52;94.00;94560.80;1635780;87;21062;-58
2021/06/26 01:23:52;;;;;;;14.58;3.85;;;;;;;17.58;94.50;94558.03;1638263;87;21976;-58
2021/06/26 01:26:19;;;;;;;13.65;4.12;;;;;;;17.63;94.05;94553.15;1616589;87;21030;-59
2021/06/26 01:28:47;;;;;;;9.83;4.42;;;;;;;17.62;93.75;94548.84;1619583;87;21104;-57
2021/06/26 01:31:14;;;;;;;6.45;3.50;;;;;;;17.59;93.62;94546.41;1636500;87;21081;-59
2021/06/26 01:33:40;;;;;;;6.58;3.90;;;;;;;17.57;93.52;94535.02;1635379;87;21089;-58
2021/06/26 01:36:08;;;;;;;10.95;3.75;;;;;;;17.56;93.91;94536.91;1627282;87;21977;-57
2021/06/26 01:38:35;;;;;;;11.48;3.98;;;;;;;17.55;94.00;94538.94;1625495;87;21496;-58
2021/06/26 01:41:02;;;;;;;11.73;3.90;;;;;;;17.49;94.01;94539.52;1632027;87;21120;-57
2021/06/26 01:43:30;;;;;;;6.62;4.10;;;;;;;17.43;94.50;94531.02;1605127;87;21050;-58
2021/06/26 01:45:57;;;;;;;10.40;4.87;;;;;;;17.45;94.82;94532.68;1627819;87;21025;-58
2021/06/26 01:48:23;;;;;;;11.60;5.28;;;;;;;17.50;94.77;94524.98;1631478;87;21146;-59
2021/06/26 01:50:52;;;;;;;11.75;5.05;;;;;;;17.53;94.45;94521.98;1626112;87;21151;-59
2021/06/26 01:53:19;;;;;;;14.38;5.30;;;;;;;17.52;94.69;94517.68;1624712;87;21031;-59
2021/06/26 01:55:46;;;;;;;10.98;4.60;;;;;;;17.57;95.20;94509.22;1595482;89;20994;-58
2021/06/26 01:58:13;;;;;;;8.15;4.00;;;;;;;17.60;95.01;94513.78;1629439;87;21470;-58
2021/06/26 02:00:40;;;;;;;10.32;4.37;;;;;;;17.61;95.25;94519.50;1625158;87;21277;-57
2021/06/26 02:03:07;;;;;;;6.00;4.03;;;;;;;17.63;95.02;94518.38;1604949;87;21082;-58
2021/06/26 02:05:34;;;;;;;8.18;4.53;;;;;;;17.62;95.01;94516.84;1636283;87;21004;-56
2021/06/26 02:08:01;;;;;;;6.17;4.62;;;;;;;17.65;95.16;94518.63;1628955;86;21438;-57
2021/06/26 02:10:28;;;;;;;9.18;4.62;;;;;;;17.66;94.51;94523.68;1638867;87;20974;-58
2021/06/26 02:12:55;;;;;;;13.10;4.35;;;;;;;17.63;94.29;94519.12;1634296;87;21226;-58
2021/06/26 02:15:21;;;;;;;9.70;4.40;;;;;;;17.62;94.24;94508.50;1626635;87;21033;-57
2021/06/26 02:17:48;;;;;;;12.58;4.62;;;;;;;17.62;94.24;94521.77;1608659;87;21565;-57
2021/06/26 02:20:15;;;;;;;7.72;4.25;;;;;;;17.63;94.43;94515.59;1624378;87;20987;-57
2021/06/26 02:22:43;;;;;;;9.68;4.45;;;;;;;17.64;94.28;94521.28;1607598;87;21034;-58
2021/06/26 02:25:11;;;;;;;11.03;4.12;;;;;;;17.63;94.38;94514.94;1642890;86;21238;-58
2021/06/26 02:27:37;;;;;;;9.58;3.83;;;;;;;17.63;94.14;94504.46;1633655;86;21109;-57
2021/06/26 02:30:06;;;;;;;9.83;3.67;;;;;;;17.61;93.93;94479.16;1635027;87;20994;-58
2021/06/26 02:32:33;;;;;;;10.75;3.77;;;;;;;17.59;94.07;94472.69;1638237;87;21006;-58
2021/06/26 02:35:00;;;;;;;11.57;4.10;;;;;;;17.58;93.97;94459.27;1631412;87;21068;-58
2021/06/26 02:37:27;;;;;;;6.47;3.50;;;;;;;17.54;94.16;94455.35;1624588;87;21131;-57
2021/06/26 02:39:54;;;;;;;4.55;3.65;;;;;;;17.51;94.15;94451.41;1621920;87;21027;-58
2021/06/26 02:42:21;;;;;;;9.43;3.70;;;;;;;17.44;94.40;94455.41;1605004;87;21006;-57
2021/06/26 02:44:48;;;;;;;8.80;4.35;;;;;;;17.38;94.49;94456.03;1627437;87;21118;-58
2021/06/26 02:47:17;;;;;;;11.78;4.85;;;;;;;17.36;95.04;94436.91;1630202;87;20994;-59
2021/06/26 02:49:45;;;;;;;7.95;4.42;;;;;;;17.36;94.99;94434.13;1603290;87;21180;-58
2021/06/26 02:52:12;;;;;;;7.92;4.17;;;;;;;17.39;95.03;94438.70;1633464;87;21030;-59
2021/06/26 02:54:39;;;;;;;12.60;3.85;;;;;;;17.45;95.09;94432.55;1625746;87;21149;-58
2021/06/26 02:57:07;;;;;;;6.90;4.40;;;;;;;17.51;94.74;94434.10;1622669;86;22958;-58
2021/06/26 02:59:34;;;;;;;6.12;4.28;;;;;;;17.53;94.76;94434.98;1633875;85;21005;-58
2021/06/26 03:02:01;;;;;;;34.10;24.43;;;;;;;17.61;95.33;94438.82;1632719;87;21166;-57
2021/06/26 03:04:28;;;;;;;8.98;6.47;;;;;;;17.71;94.93;94435.94;1638044;87;21045;-58
2021/06/26 03:06:56;;;;;;;7.83;4.92;;;;;;;17.72;94.32;94434.67;1630289;87;21022;-58
2021/06/26 03:09:24;;;;;;;11.38;3.70;;;;;;;17.62;94.13;94431.34;1608952;87;21117;-57
2021/06/26 03:11:50;;;;;;;6.72;4.10;;;;;;;17.57;94.15;94431.31;1631364;87;21723;-56
2021/06/26 03:14:17;;;;;;;6.28;4.17;;;;;;;17.54;94.71;94433.71;1626506;87;21503;-58
2021/06/26 03:16:44;;;;;;;10.23;4.28;;;;;;;17.62;95.16;94440.34;1634273;87;20990;-59
2021/06/26 03:19:10;;;;;;;13.90;5.00;;;;;;;17.68;94.87;94439.72;1627637;87;21078;-59
2021/06/26 03:21:38;;;;;;;8.05;4.20;;;;;;;17.72;95.02;94437.45;1624346;87;21002;-57
2021/06/26 03:24:07;;;;;;;10.93;4.62;;;;;;;17.80;94.76;94428.77;1628710;87;21593;-58
2021/06/26 03:26:35;;;;;;;9.35;4.37;;;;;;;17.80;94.15;94421.17;1622658;87;21156;-56
2021/06/26 03:29:02;;;;;;;8.15;4.65;;;;;;;17.78;93.98;94431.27;1607741;87;21006;-58
2021/06/26 03:31:30;;;;;;;10.35;4.62;;;;;;;17.69;94.04;94450.98;1623953;87;21117;-57
2021/06/26 03:33:56;;;;;;;11.50;4.97;;;;;;;17.64;95.00;94453.12;1625130;87;21026;-58
2021/06/26 03:36:24;;;;;;;13.28;5.00;;;;;;;17.66;95.15;94447.81;1630437;87;21095;-57
2021/06/26 03:38:52;;;;;;;11.08;6.33;;;;;;;17.67;95.18;94466.77;1625261;87;21842;-57
2021/06/26 03:41:24;;;;;;;11.00;7.08;;;;;;;17.72;95.22;94471.62;1630484;87;21045;-57
2021/06/26 03:43:48;;;;;;;15.63;6.95;;;;;;;17.77;95.16;94469.48;1606662;87;21037;-58
2021/06/26 03:46:14;;;;;;;12.88;6.85;;;;;;;17.78;94.58;94474.41;1630350;87;20999;-58
2021/06/26 03:48:41;;;;;;;10.50;5.70;;;;;;;17.76;94.36;94476.31;1638691;87;20986;-58
2021/06/26 03:51:08;;;;;;;10.85;6.15;;;;;;;17.73;94.21;94475.92;1636650;87;21155;-58
2021/06/26 03:53:35;;;;;;;13.38;5.22;;;;;;;17.75;94.53;94487.93;1631607;87;21210;-57
2021/06/26 03:56:02;;;;;;;9.73;5.15;;;;;;;17.80;94.50;94478.22;1597206;87;21506;-58
2021/06/26 03:58:28;;;;;;;7.80;4.33;;;;;;;17.84;94.04;94479.38;1631401;86;21010;-58
2021/06/26 04:00:56;;;;;;;8.35;4.55;;;;;;;17.84;93.99;94482.16;1632796;87;21030;-58
2021/06/26 04:03:26;;;;;;;9.25;4.08;;;;;;;17.87;94.33;94476.37;1628953;87;21166;-58
2021/06/26 04:05:53;;;;;;;10.75;4.42;;;;;;;17.96;94.24;94481.70;1611071;87;21519;-57
2021/06/26 04:08:20;;;;;;;5.75;3.60;;;;;;;18.01;93.88;94479.56;1602596;87;21002;-57
2021/06/26 04:10:47;;;;;;;7.45;3.40;;;;;;;18.06;94.08;94473.27;1629063;87;21034;-58
2021/06/26 04:13:13;;;;;;;5.37;4.00;;;;;;;18.16;93.46;94461.27;1623060;87;21062;-58
2021/06/26 04:15:40;;;;;;;4.25;2.58;;;;;;;18.16;93.01;94471.77;1626809;87;21131;-58
2021/06/26 04:18:07;;;;;;;6.95;3.75;;;;;;;18.15;92.72;94479.24;1631473;87;21170;-58
2021/06/26 04:20:33;;;;;;;7.85;4.45;;;;;;;18.09;92.54;94474.27;1618072;87;21089;-58
2021/06/26 04:23:00;;;;;;;10.18;4.80;;;;;;;18.10;92.68;94474.39;1626876;88;21058;-59
2021/06/26 04:25:27;;;;;;;6.75;4.42;;;;;;;18.09;92.68;94472.88;1633718;87;20994;-59
2021/06/26 04:27:54;;;;;;;8.93;5.30;;;;;;;18.13;93.09;94474.16;1643901;87;21149;-58
2021/06/26 04:30:22;;;;;;;9.10;3.92;;;;;;;18.20;93.28;94475.83;1632200;86;21089;-58
2021/06/26 04:32:49;;;;;;;8.05;3.75;;;;;;;18.28;93.48;94474.09;1639561;87;21090;-58
2021/06/26 04:35:20;;;;;;;9.03;4.00;;;;;;;18.35;92.44;94469.44;1630465;86;21109;-58
2021/06/26 04:37:44;;;;;;;7.15;4.03;;;;;;;18.40;91.69;94461.72;1629283;86;21590;-58
2021/06/26 04:40:13;;;;;;;6.92;4.08;;;;;;;18.52;91.55;94460.48;1629078;87;21058;-59
2021/06/26 04:42:40;;;;;;;7.80;4.62;;;;;;;18.59;91.48;94454.39;1622352;87;21428;-59
2021/06/26 04:45:09;;;;;;;8.98;4.35;;;;;;;18.76;91.37;94462.13;1625428;87;21038;-58
2021/06/26 04:47:37;;;;;;;8.20;4.40;;;;;;;18.92;90.93;94454.41;1623092;87;21108;-58
2021/06/26 04:50:05;;;;;;;8.83;5.05;;;;;;;19.12;90.58;94459.70;1603605;88;21082;-58
2021/06/26 04:52:33;;;;;;;6.92;3.52;;;;;;;19.26;89.74;94460.10;1604687;87;21195;-59
2021/06/26 04:55:02;;;;;;;4.42;3.00;;;;;;;19.43;88.90;94454.48;1631837;86;21078;-59
2021/06/26 04:57:29;;;;;;;4.22;2.58;;;;;;;19.60;88.20;94457.33;1621299;87;21101;-59
2021/06/26 04:59:56;;;;;;;6.85;3.37;;;;;;;19.71;87.14;94460.09;1625837;87;21198;-60
2021/06/26 05:02:23;;;;;;;7.55;3.00;;;;;;;19.73;85.44;94460.99;1630516;87;21031;-58
2021/06/26 05:04:50;;;;;;;11.53;3.70;;;;;;;19.68;84.82;94459.73;1574869;87;21239;-58
2021/06/26 05:07:16;;;;;;;8.20;4.00;;;;;;;19.68;84.14;94463.14;1639784;87;21106;-57
2021/06/26 05:09:44;;;;;;;26.15;15.60;;;;;;;19.72;84.23;94470.64;1619855;87;21080;-57
2021/06/26 05:12:11;;;;;;;10.85;6.70;;;;;;;19.78;84.36;94469.33;1601352;87;21098;-57
2021/06/26 05:14:39;;;;;;;5.83;3.85;;;;;;;19.86;84.90;94475.13;1624797;87;21090;-58
2021/06/26 05:17:06;;;;;;;6.70;4.37;;;;;;;19.94;84.94;94467.11;1632934;87;21242;-58
2021/06/26 05:19:34;;;;;;;7.12;3.58;;;;;;;19.95;85.26;94465.83;1634201;87;21022;-59
2021/06/26 05:22:02;;;;;;;6.40;2.72;;;;;;;19.95;84.80;94466.48;1620358;87;21033;-59
2021/06/26 05:24:29;;;;;;;11.75;5.53;;;;;;;19.96;83.83;94468.74;1633381;87;21515;-59
2021/06/26 05:26:55;;;;;;;9.68;5.05;;;;;;;19.98;82.88;94463.43;1624067;87;21089;-58
2021/06/26 05:29:22;;;;;;;7.40;3.47;;;;;;;19.95;82.61;94464.44;1604876;88;21156;-59
2021/06/26 05:31:49;;;;;;;9.63;4.22;;;;;;;19.87;81.46;94463.47;1625686;87;21132;-59
2021/06/26 05:34:15;;;;;;;11.78;9.58;;;;;;;19.81;81.43;94467.55;1627996;87;21499;-59
2021/06/26 05:36:42;;;;;;;11.78;5.97;;;;;;;19.78;81.51;94473.51;1623846;87;21076;-59
2021/06/26 05:39:09;;;;;;;145.17;97.22;;;;;;;19.74;81.72;94476.47;1612885;87;21143;-57
2021/06/26 05:41:39;;;;;;;57.93;40.88;;;;;;;19.73;82.34;94484.06;1621181;86;21205;-57
2021/06/26 05:44:06;;;;;;;65.55;45.78;;;;;;;19.75;82.70;94498.27;1626838;87;21003;-59
2021/06/26 05:46:33;;;;;;;36.20;22.13;;;;;;;19.77;82.44;94502.70;1629588;87;21084;-58
2021/06/26 05:49:00;;;;;;;8.05;4.87;;;;;;;19.82;81.90;94502.57;1640481;87;21535;-58
2021/06/26 05:51:27;;;;;;;8.73;4.25;;;;;;;19.85;81.01;94500.92;1637135;86;21049;-59
2021/06/26 05:53:53;;;;;;;16.75;7.37;;;;;;;19.85;80.37;94497.35;1630114;87;21222;-58
2021/06/26 05:56:20;;;;;;;8.10;4.72;;;;;;;19.85;80.72;94502.94;1625059;87;21018;-58
2021/06/26 05:58:47;;;;;;;6.20;2.92;;;;;;;19.91;81.55;94505.84;1637932;85;21116;-58
2021/06/26 06:01:14;;;;;;;9.73;4.92;;;;;;;20.01;82.24;94511.27;1628796;87;21009;-59
2021/06/26 06:03:41;;;;;;;10.30;3.85;;;;;;;20.11;81.94;94506.19;1637004;87;21081;-59
2021/06/26 06:06:08;;;;;;;10.48;3.20;;;;;;;20.17;81.92;94514.02;1640479;87;21913;-59
2021/06/26 06:08:36;;;;;;;7.20;3.05;;;;;;;20.20;81.53;94514.38;1609157;86;21010;-58
2021/06/26 06:11:03;;;;;;;5.28;2.98;;;;;;;20.24;82.06;94521.87;1630078;87;21026;-59
2021/06/26 06:13:30;;;;;;;6.95;2.80;;;;;;;20.26;82.44;94511.56;1636546;87;21034;-59
2021/06/26 06:15:58;;;;;;;5.47;2.72;;;;;;;20.25;82.05;94514.23;1624229;87;21067;-58
2021/06/26 06:18:25;;;;;;;6.33;2.80;;;;;;;20.30;81.50;94513.44;1621915;87;22296;-57
2021/06/26 06:20:51;;;;;;;7.97;2.75;;;;;;;20.35;81.03;94509.23;1593840;88;21311;-58
2021/06/26 06:23:18;;;;;;;7.45;2.50;;;;;;;20.39;80.75;94509.71;1621137;87;21108;-57
2021/06/26 06:25:45;;;;;;;7.37;2.62;;;;;;;20.43;81.85;94511.62;1625303;87;21597;-57
2021/06/26 06:28:11;;;;;;;6.22;2.92;;;;;;;20.46;81.65;94504.98;1619631;87;21542;-57
2021/06/26 06:30:38;;;;;;;7.87;2.87;;;;;;;20.48;81.85;94503.83;1626277;87;21601;-58
2021/06/26 06:33:06;;;;;;;7.67;3.72;;;;;;;20.50;82.49;94502.67;1630294;86;21032;-58
2021/06/26 06:35:32;;;;;;;8.03;3.22;;;;;;;20.54;82.80;94504.55;1612645;87;21073;-59
2021/06/26 06:38:00;;;;;;;6.17;2.87;;;;;;;20.50;82.71;94492.12;1618728;87;48288;-58
2021/06/26 06:40:27;;;;;;;4.75;3.20;;;;;;;20.45;82.46;94491.52;1630169;86;21094;-59
2021/06/26 06:42:54;;;;;;;9.90;3.30;;;;;;;20.43;82.68;94482.27;1596343;87;21175;-59
2021/06/26 06:45:21;;;;;;;7.17;4.30;;;;;;;20.46;83.05;94476.27;1620465;86;21068;-59
2021/06/26 06:47:48;;;;;;;9.83;4.50;;;;;;;20.52;83.05;94474.22;1578549;88;21131;-59
2021/06/26 06:50:16;;;;;;;10.08;3.50;;;;;;;20.55;83.06;94469.73;1627542;87;21163;-57
2021/06/26 06:52:43;;;;;;;7.60;3.27;;;;;;;20.64;82.66;94474.25;1619572;88;21235;-59
2021/06/26 06:55:10;;;;;;;8.08;3.12;;;;;;;20.69;81.40;94478.41;1628926;87;21289;-58
2021/06/26 06:57:37;;;;;;;7.08;3.10;;;;;;;20.78;81.30;94473.88;1625692;87;21110;-60
2021/06/26 07:00:07;;;;;;;7.62;3.12;;;;;;;20.88;81.01;94477.14;1621971;86;21005;-61
2021/06/26 07:02:34;;;;;;;4.95;2.83;;;;;;;20.95;78.51;94474.55;1631430;86;21045;-61
2021/06/26 07:05:01;;;;;;;13.03;5.45;;;;;;;20.97;77.93;94469.84;1635205;87;21537;-59
2021/06/26 07:07:28;;;;;;;6.55;2.58;;;;;;;21.04;78.43;94466.46;1625751;87;21152;-59
2021/06/26 07:09:56;;;;;;;5.37;2.70;;;;;;;21.12;78.53;94468.83;1592909;87;21102;-59
2021/06/26 07:12:23;;;;;;;7.65;2.83;;;;;;;21.30;78.71;94463.95;1612327;87;21462;-58
2021/06/26 07:14:51;;;;;;;8.98;4.58;;;;;;;21.50;77.48;94467.70;1624114;87;21019;-60
2021/06/26 07:17:19;;;;;;;10.30;3.35;;;;;;;21.73;76.65;94459.20;1631124;87;21076;-59
2021/06/26 07:19:45;;;;;;;4.05;2.30;;;;;;;21.93;76.35;94458.71;1630651;87;21175;-58
2021/06/26 07:22:12;;;;;;;5.92;2.67;;;;;;;22.07;75.69;94457.64;1619344;87;21024;-58
2021/06/26 07:24:39;;;;;;;5.40;2.42;;;;;;;22.21;75.38;94466.26;1620318;87;21039;-58
2021/06/26 07:27:07;;;;;;;6.30;2.80;;;;;;;22.31;73.67;94461.77;1615397;86;21593;-59
2021/06/26 07:29:34;;;;;;;4.92;2.25;;;;;;;22.41;73.27;94467.16;1625710;87;21100;-61
2021/06/26 07:32:01;;;;;;;5.42;2.20;;;;;;;22.47;73.29;94467.83;1619086;87;21151;-59
2021/06/26 07:34:28;;;;;;;4.17;2.17;;;;;;;22.45;72.38;94473.22;1628889;87;21069;-60
2021/06/26 07:36:54;;;;;;;7.08;3.02;;;;;;;22.41;72.36;94469.97;1628252;86;21138;-60
2021/06/26 07:39:22;;;;;;;4.58;2.37;;;;;;;22.37;72.49;94471.52;1599495;88;21126;-60
2021/06/26 07:41:48;;;;;;;4.97;2.65;;;;;;;22.31;72.28;94476.45;1621089;87;21057;-59
2021/06/26 07:44:18;;;;;;;6.53;2.70;;;;;;;22.29;72.14;94475.56;1626289;87;22260;-60
2021/06/26 07:46:45;;;;;;;6.70;2.85;;;;;;;22.37;72.35;94470.89;1612036;87;21038;-60
2021/06/26 07:49:11;;;;;;;7.22;2.98;;;;;;;22.49;71.87;94475.06;1614041;87;21111;-60
2021/06/26 07:51:40;;;;;;;12.50;6.17;;;;;;;22.63;70.23;94474.52;1598980;88;21109;-60
2021/06/26 07:54:08;;;;;;;18.15;11.35;;;;;;;22.78;68.73;94472.74;1620877;86;21445;-58
2021/06/26 07:56:36;;;;;;;7.08;3.47;;;;;;;22.92;69.55;94475.72;1621156;87;21148;-59
2021/06/26 07:59:03;;;;;;;4.75;2.90;;;;;;;23.06;69.20;94467.44;1624972;87;21003;-59
2021/06/26 08:01:31;;;;;;;6.08;3.30;;;;;;;23.26;69.29;94470.34;1622302;87;21177;-59
2021/06/26 08:03:57;;;;;;;11.43;3.05;;;;;;;23.39;69.08;94469.72;1623197;87;21061;-59
2021/06/26 08:06:26;;;;;;;7.87;2.87;;;;;;;23.45;68.18;94474.61;1579378;87;20991;-59
2021/06/26 08:08:53;;;;;;;8.48;4.15;;;;;;;23.56;68.56;94471.59;1624919;87;21901;-60
2021/06/26 08:11:20;;;;;;;5.97;2.98;;;;;;;23.63;66.92;94466.76;1619459;87;21123;-59
2021/06/26 08:13:49;;;;;;;7.10;3.33;;;;;;;23.73;66.53;94467.83;1626826;87;21022;-59
2021/06/26 08:16:18;;;;;;;5.47;2.80;;;;;;;23.81;66.14;94468.72;1622319;87;21256;-60
2021/06/26 08:18:44;;;;;;;6.90;2.75;;;;;;;23.88;64.97;94474.34;1615425;87;21086;-60
2021/06/26 08:21:11;;;;;;;12.60;5.65;;;;;;;23.95;62.63;94470.23;1630713;87;21004;-60
2021/06/26 08:23:38;;;;;;;6.03;3.08;;;;;;;23.98;63.32;94467.75;1622409;87;20982;-60
2021/06/26 08:26:05;;;;;;;9.08;2.47;;;;;;;24.04;64.52;94471.23;1624396;87;21435;-59
2021/06/26 08:28:32;;;;;;;5.50;2.50;;;;;;;24.13;65.35;94469.37;1593094;88;21622;-58
2021/06/26 08:30:59;;;;;;;5.28;2.67;;;;;;;24.22;66.19;94473.16;1621716;87;21148;-59
2021/06/26 08:33:25;;;;;;;5.87;2.52;;;;;;;24.36;65.54;94481.70;1622363;87;21102;-58
2021/06/26 08:35:52;;;;;;;6.08;2.17;;;;;;;24.50;64.55;94476.90;1621365;87;20983;-57
2021/06/26 08:38:20;;;;;;;8.98;2.25;;;;;;;24.67;63.73;94477.32;1593872;87;21133;-61
2021/06/26 08:40:48;;;;;;;5.05;2.45;;;;;;;24.84;63.61;94479.11;1621047;86;21495;-59
2021/06/26 08:43:14;;;;;;;7.45;2.05;;;;;;;25.04;63.73;94476.20;1629110;87;21047;-60
2021/06/26 08:45:43;;;;;;;6.35;1.57;;;;;;;25.26;59.80;94471.47;1623356;88;21043;-59
2021/06/26 08:48:09;;;;;;;7.85;2.45;;;;;;;25.50;60.18;94463.42;1590749;87;21236;-59
2021/06/26 08:50:36;;;;;;;6.30;2.33;;;;;;;25.70;60.47;94459.09;1630642;87;21001;-58
2021/06/26 08:53:03;;;;;;;7.17;2.47;;;;;;;25.93;61.81;94463.61;1597235;87;21172;-58
2021/06/26 08:55:31;;;;;;;7.78;2.33;;;;;;;26.22;60.13;94465.84;1627289;87;21033;-59
2021/06/26 08:58:00;;;;;;;6.58;2.50;;;;;;;26.41;55.65;94465.55;1628650;87;21157;-59
2021/06/26 09:00:27;;;;;;;4.65;2.10;;;;;;;26.42;57.31;94469.24;1595331;88;20978;-61
2021/06/26 09:03:13;;;;;;;6.45;2.35;;;;;;;26.42;55.86;94463.59;1625900;86;20986;-58
2021/06/26 09:05:43;;;;;;;8.60;3.15;;;;;;;26.37;55.44;94468.76;1623784;87;20971;-59
2021/06/26 09:08:18;;;;;;;6.40;2.87;;;;;;;26.20;55.55;94474.76;1621758;87;20987;-58
2021/06/26 09:10:50;;;;;;;5.22;2.60;;;;;;;26.06;55.76;94472.71;1626124;87;21455;-61
2021/06/26 09:13:24;;;;;;;8.23;3.20;;;;;;;25.92;55.34;94465.56;1627738;86;21501;-57
2021/06/26 09:16:08;;;;;;;7.75;3.05;;;;;;;25.82;57.59;94466.69;1635799;87;21124;-61
2021/06/26 09:18:50;;;;;;;7.45;2.95;;;;;;;25.83;57.18;94466.05;1626111;87;21031;-59
2021/06/26 09:21:37;;;;;;;7.67;2.77;;;;;;;25.96;57.44;94461.08;1611326;87;21129;-58
2021/06/26 09:24:05;;;;;;;8.98;2.95;;;;;;;26.20;55.59;94462.83;1618049;87;21912;-59
2021/06/26 09:26:58;;;;;;;5.65;2.85;;;;;;;26.49;56.62;94463.56;1619073;87;21121;-59
2021/06/26 09:29:24;;;;;;;9.05;2.92;;;;;;;26.81;54.49;94466.70;1623166;87;21084;-58
2021/06/26 09:31:59;;;;;;;6.95;2.60;;;;;;;27.03;53.77;94455.45;1626081;87;21606;-58
2021/06/26 09:34:45;;;;;;;4.28;2.67;;;;;;;27.23;53.41;94450.34;1627020;87;20967;-57
2021/06/26 09:37:20;;;;;;;9.28;2.77;;;;;;;27.45;53.50;94454.52;1621113;87;23202;-60
2021/06/26 09:39:47;;;;;;;11.20;2.65;;;;;;;27.57;50.54;94454.98;1622942;87;21073;-59
2021/06/26 09:42:20;;;;;;;8.78;3.00;;;;;;;27.68;51.11;94454.62;1630056;86;21491;-59
2021/06/26 09:45:00;;;;;;;5.42;2.52;;;;;;;27.78;50.70;94456.98;1625772;87;21471;-61
2021/06/26 09:47:30;;;;;;;7.53;2.72;;;;;;;27.88;50.38;94455.10;1627253;87;21027;-59
2021/06/26 09:50:17;;;;;;;5.78;2.40;;;;;;;27.98;50.09;94449.71;1623941;88;21805;-60
2021/06/26 09:53:00;;;;;;;5.70;2.75;;;;;;;27.92;48.62;94454.73;1627049;87;21486;-61
2021/06/26 09:55:37;;;;;;;7.08;3.20;;;;;;;27.59;49.11;94451.60;1621381;87;21099;-57
2021/06/26 09:58:16;;;;;;;8.03;3.02;;;;;;;27.29;49.42;94457.23;1617598;88;21032;-60
2021/06/26 10:00:44;;;;;;;12.28;4.92;;;;;;;26.95;50.19;94451.87;1620737;87;21090;-60
2021/06/26 10:03:17;;;;;;;5.92;2.90;;;;;;;26.66;51.32;94447.63;1625384;88;21927;-59
2021/06/26 10:05:44;;;;;;;;;;;;;;;26.66;51.18;94441.98;1599381;87;20991;-59
2021/06/26 10:08:12;;;;;;;7.87;2.45;;;;;;;26.91;53.74;94443.02;1622137;87;20278;-58
2021/06/26 10:10:41;;;;;;;3.87;2.27;;;;;;;27.16;51.80;94435.55;1620765;87;20993;-59
2021/06/26 10:13:13;;;;;;;6.55;2.52;;;;;;;27.35;52.17;94437.36;1625063;87;21082;-59
2021/06/26 10:15:41;;;;;;;5.75;3.25;;;;;;;27.52;52.71;94444.63;1618360;87;21482;-60
2021/06/26 10:18:11;;;;;;;9.35;2.60;;;;;;;27.74;53.05;94443.16;1622541;87;21239;-59
2021/06/26 10:20:38;;;;;;;5.67;2.35;;;;;;;27.95;48.05;94455.09;1580406;89;21040;-61
2021/06/26 10:23:04;;;;;;;8.80;2.33;;;;;;;28.18;50.33;94447.98;1584782;90;21436;-61
2021/06/26 10:25:33;;;;;;;7.53;3.62;;;;;;;28.43;49.74;94437.55;1584695;90;21536;-59
2021/06/26 10:28:16;;;;;;;5.45;2.77;;;;;;;28.68;50.03;94432.73;1584618;88;21205;-60
2021/06/26 10:30:43;;;;;;;5.25;2.50;;;;;;;28.87;47.34;94441.51;1584812;88;21036;-60
2021/06/26 10:33:11;;;;;;;7.30;2.85;;;;;;;29.00;48.66;94455.45;1585382;90;21121;-58
2021/06/26 10:35:40;;;;;;;7.30;3.52;;;;;;;29.04;46.99;94458.63;1630201;87;20990;-60
2021/06/26 10:38:09;;;;;;;7.60;4.08;;;;;;;29.05;48.89;94460.91;1601463;87;21091;-59
2021/06/26 10:40:46;;;;;;;5.10;2.60;;;;;;;29.14;48.55;94453.87;1625230;87;21136;-60
2021/06/26 10:43:27;;;;;;;9.10;3.42;;;;;;;29.01;47.41;94456.95;1621014;87;21075;-58
2021/06/26 10:46:13;;;;;;;7.92;2.72;;;;;;;28.72;46.91;94469.89;1624081;87;21420;-61
2021/06/26 10:48:42;;;;;;;7.03;3.15;;;;;;;28.24;47.37;94462.00;1619801;87;21067;-61
2021/06/26 10:51:10;;;;;;;7.75;3.30;;;;;;;27.82;48.79;94463.68;1621472;87;21085;-60
2021/06/26 10:53:40;;;;;;;12.98;3.80;;;;;;;27.42;50.31;94462.03;1599328;87;21214;-60
2021/06/26 10:56:12;;;;;;;6.85;3.15;;;;;;;27.04;50.75;94468.27;1626014;87;21096;-58
2021/06/26 10:58:44;;;;;;;14.25;4.42;;;;;;;26.98;51.85;94471.92;1622850;87;21178;-59
2021/06/26 11:01:24;;;;;;;9.88;3.83;;;;;;;27.13;51.76;94471.23;1600191;88;21568;-59
2021/06/26 11:04:09;;;;;;;6.78;3.77;;;;;;;27.35;52.49;94471.92;1622125;87;21459;-60
2021/06/26 11:06:38;;;;;;;14.25;3.65;;;;;;;27.32;52.25;94474.46;1620504;87;22005;-59
2021/06/26 11:09:12;;;;;;;6.33;2.70;;;;;;;27.30;52.27;94475.69;1629467;87;21577;-59
2021/06/26 11:11:50;;;;;;;7.35;3.45;;;;;;;27.56;51.91;94471.85;1619320;87;21054;-59
2021/06/26 11:14:24;;;;;;;4.72;3.33;;;;;;;27.80;52.40;94469.89;1637973;87;21046;-59
2021/06/26 11:16:55;;;;;;;9.03;4.33;;;;;;;27.68;52.68;94484.30;1622510;87;21618;-61
2021/06/26 11:19:25;;;;;;;13.40;4.97;;;;;;;27.88;52.87;94489.04;1623210;87;21830;-60
2021/06/26 11:21:54;;;;;;;9.70;3.98;;;;;;;27.92;51.28;94484.42;1622231;87;20999;-62
2021/06/26 11:24:37;;;;;;;16.75;5.15;;;;;;;27.70;50.01;94473.83;1619872;87;21096;-60
2021/06/26 11:27:06;;;;;;;8.13;3.60;;;;;;;27.27;50.13;94478.23;1621033;87;21105;-62
2021/06/26 11:29:40;;;;;;;10.68;4.10;;;;;;;26.77;52.70;94480.41;1617937;87;21515;-60
2021/06/26 11:32:24;;;;;;;9.55;3.83;;;;;;;26.62;53.83;94483.94;1620760;87;21098;-59
2021/06/26 11:34:57;;;;;;;9.23;3.60;;;;;;;26.68;54.17;94493.66;1629317;87;21041;-60
2021/06/26 11:37:33;;;;;;;11.60;4.12;;;;;;;26.68;54.30;94481.70;1622843;87;21033;-60